Time;durP1;ratioP1;P1;durP2;ratioP2;P2;SDS_P1;SDS_P2;PMS_P1;PMS_P2;Temp;Humidity;BMP_temperature;BMP_pressure;BME280_temperature;BME280_humidity;BME280_pressure;Samples;Min_cycle;Max_cycle;Signal;HPM_P1;HPM_P2
2023/02/21 02:16:15;;;;;;;6.78;3.30;;;;;;;2.09;100.00;93427.75;5048539;28;20954;-69
2023/02/21 02:18:58;;;;;;;6.35;3.72;;;;;;;2.15;100.00;93423.84;5047877;28;20096;-69
2023/02/21 02:22:09;;;;;;;6.63;3.45;;;;;;;2.18;100.00;93413.38;5047902;28;20099;-69
2023/02/21 02:24:58;;;;;;;7.15;3.47;;;;;;;2.19;100.00;93414.19;5000810;28;20409;-70
2023/02/21 02:28:01;;;;;;;7.30;3.45;;;;;;;2.16;100.00;93410.22;5067817;28;20558;-69
2023/02/21 02:31:12;;;;;;;6.30;3.13;;;;;;;2.05;100.00;93388.50;5068399;28;20051;-69
2023/02/21 02:34:13;;;;;;;5.47;3.85;;;;;;;2.19;100.00;93414.19;5068617;28;20048;-70
2023/02/21 02:36:44;;;;;;;11.25;5.65;;;;;;;2.18;100.00;93415.91;5068514;28;20059;-69
2023/02/21 02:39:21;;;;;;;9.73;4.95;;;;;;;2.08;100.00;93398.31;5068387;28;20397;-69
2023/02/21 02:41:53;;;;;;;9.55;4.70;;;;;;;2.17;100.00;93408.47;5070386;28;20052;-69
2023/02/21 02:44:25;;;;;;;11.90;5.03;;;;;;;2.11;100.00;93399.75;5072295;28;20048;-69
2023/02/21 02:46:54;;;;;;;14.55;5.75;;;;;;;2.20;100.00;93419.09;5072245;28;20051;-69
2023/02/21 02:49:23;;;;;;;9.18;4.40;;;;;;;2.23;100.00;93415.47;5071945;28;20044;-69
2023/02/21 02:51:52;;;;;;;9.55;4.13;;;;;;;2.22;100.00;93404.53;5071998;28;20106;-70
2023/02/21 02:54:19;;;;;;;8.20;4.03;;;;;;;2.26;100.00;93415.94;5071626;28;20094;-69
2023/02/21 02:56:46;;;;;;;6.20;3.83;;;;;;;2.32;100.00;93418.81;5072098;28;20053;-70
2023/02/21 02:59:17;;;;;;;7.93;4.22;;;;;;;2.32;100.00;93418.81;5071635;28;20052;-70
2023/02/21 03:02:24;;;;;;;7.07;4.63;;;;;;;2.34;100.00;93422.78;5071524;28;20139;-70
2023/02/21 03:05:15;;;;;;;7.13;4.22;;;;;;;2.46;100.00;93419.97;5071599;28;20440;-70
2023/02/21 03:07:50;;;;;;;12.32;6.80;;;;;;;2.36;100.00;93423.44;5071673;28;20698;-70
2023/02/21 03:10:27;;;;;;;11.52;5.97;;;;;;;2.35;100.00;93424.38;5071606;28;20090;-69
2023/02/21 03:13:02;;;;;;;8.65;5.30;;;;;;;2.38;100.00;93415.66;5071376;28;20098;-70
2023/02/21 03:15:36;;;;;;;9.60;6.03;;;;;;;2.42;100.00;93416.16;5071464;28;20048;-70
2023/02/21 03:18:10;;;;;;;10.55;6.95;;;;;;;2.39;100.00;93415.53;5061859;28;20080;-69
2023/02/21 03:20:39;;;;;;;9.50;5.47;;;;;;;2.43;100.00;93410.13;5068054;28;20052;-69
2023/02/21 03:23:10;;;;;;;10.02;6.03;;;;;;;2.41;100.00;93415.38;5069213;28;20090;-70
2023/02/21 03:25:40;;;;;;;9.15;5.35;;;;;;;2.39;100.00;93415.53;5071108;28;20102;-71
2023/02/21 03:28:07;;;;;;;9.30;4.82;;;;;;;2.36;100.00;93420.13;5071011;28;20048;-69
2023/02/21 03:30:34;;;;;;;10.20;5.28;;;;;;;2.39;100.00;93429.94;5071262;28;20452;-70
2023/02/21 03:33:01;;;;;;;64.80;30.33;;;;;;;2.13;100.00;93425.75;5071057;28;20045;-69
2023/02/21 03:35:30;;;;;;;26.02;13.27;;;;;;;2.05;100.00;93418.91;5070566;28;20041;-69
2023/02/21 03:37:58;;;;;;;34.05;15.82;;;;;;;2.02;100.00;93423.44;5057585;28;20053;-69
2023/02/21 03:40:28;;;;;;;52.33;23.17;;;;;;;1.90;100.00;93411.03;5070601;28;20542;-69
2023/02/21 03:42:57;;;;;;;48.38;20.35;;;;;;;1.96;100.00;93425.66;5070910;28;21041;-69
2023/02/21 03:45:23;;;;;;;32.97;16.50;;;;;;;1.96;100.00;93414.72;5070675;28;20047;-69
2023/02/21 03:47:50;;;;;;;27.55;13.80;;;;;;;1.97;100.00;93412.03;5070379;28;20575;-69
2023/02/21 03:50:17;;;;;;;17.77;8.90;;;;;;;1.96;100.00;93414.72;5070598;28;20542;-69
2023/02/21 03:52:44;;;;;;;23.38;9.63;;;;;;;1.93;100.00;93409.94;5069416;28;20094;-69
2023/02/21 03:55:11;;;;;;;18.98;9.70;;;;;;;1.86;100.00;93408.03;5070451;28;20049;-70
2023/02/21 03:57:39;;;;;;;15.85;8.30;;;;;;;1.87;100.00;93403.75;5070653;28;20448;-70
2023/02/21 04:00:07;;;;;;;16.85;9.68;;;;;;;1.72;100.00;93381.53;5070435;28;20090;-70
2023/02/21 04:02:34;;;;;;;38.13;17.30;;;;;;;1.87;100.00;93404.53;5070257;28;20090;-69
2023/02/21 04:05:01;;;;;;;31.13;16.75;;;;;;;1.84;100.00;93419.25;5070565;28;20049;-70
2023/02/21 04:07:27;;;;;;;23.73;12.98;;;;;;;1.81;100.00;93411.97;5069981;28;20049;-69
2023/02/21 04:09:54;;;;;;;41.58;18.55;;;;;;;1.77;100.00;93415.75;5070292;28;20471;-69
2023/02/21 04:12:21;;;;;;;59.72;21.63;;;;;;;1.26;100.00;93422.25;5070027;28;20418;-69
2023/02/21 04:14:51;;;;;;;53.60;22.38;;;;;;;0.66;100.00;93424.41;5070258;28;20932;-69
2023/02/21 04:17:17;;;;;;;51.85;22.17;;;;;;;0.74;100.00;93422.91;5070002;28;20052;-69
2023/02/21 04:19:44;;;;;;;41.80;19.38;;;;;;;0.60;100.00;93401.47;5070076;28;20083;-69
2023/02/21 04:22:11;;;;;;;57.38;20.30;;;;;;;0.73;100.00;93431.41;5066607;28;20095;-70
2023/02/21 04:24:38;;;;;;;106.93;40.97;;;;;;;0.29;100.00;93435.44;5060203;28;20452;-69
2023/02/21 04:27:04;;;;;;;86.97;36.45;;;;;;;0.10;100.00;93442.13;5069714;28;20170;-69
2023/02/21 04:29:31;;;;;;;68.90;31.10;;;;;;;-0.11;100.00;93439.03;5069483;28;20045;-69
2023/02/21 04:31:59;;;;;;;82.53;35.38;;;;;;;-0.19;100.00;93442.28;5066344;28;20086;-69
2023/02/21 04:34:26;;;;;;;73.15;33.42;;;;;;;-0.38;100.00;93454.00;5060590;28;20048;-69
2023/02/21 04:36:53;;;;;;;75.50;34.47;;;;;;;-0.49;100.00;93452.44;5069719;28;20538;-69
2023/02/21 04:39:19;;;;;;;91.85;33.78;;;;;;;-0.72;100.00;93455.25;5069831;28;20065;-69
2023/02/21 04:41:46;;;;;;;119.20;42.03;;;;;;;-0.69;100.00;93454.97;5069523;28;20098;-69
2023/02/21 04:44:13;;;;;;;174.63;68.30;;;;;;;-0.75;100.00;93457.25;5069738;28;20105;-69
2023/02/21 04:46:40;;;;;;;108.18;45.30;;;;;;;-0.69;100.00;93461.75;5069314;28;20094;-69
2023/02/21 04:49:08;;;;;;;78.88;36.38;;;;;;;-0.86;100.00;93464.03;5069927;28;20045;-69
2023/02/21 04:51:34;;;;;;;66.00;32.03;;;;;;;-0.98;100.00;93447.41;5069925;28;20103;-69
2023/02/21 04:54:02;;;;;;;65.63;30.30;;;;;;;-0.93;100.00;93462.16;5069585;28;20048;-69
2023/02/21 04:56:29;;;;;;;111.15;44.67;;;;;;;-0.96;100.00;93463.22;5069261;28;20098;-69
2023/02/21 04:58:56;;;;;;;65.25;31.88;;;;;;;-1.09;100.00;93461.78;5069156;28;20048;-69
2023/02/21 05:01:26;;;;;;;54.83;29.05;;;;;;;-0.97;100.00;93469.22;5069376;28;20047;-69
2023/02/21 05:03:53;;;;;;;41.17;22.25;;;;;;;-1.04;100.00;93458.03;5069136;28;20113;-69
2023/02/21 05:06:23;;;;;;;59.13;30.23;;;;;;;-1.08;100.00;93462.56;5069245;28;20070;-70
2023/02/21 05:08:50;;;;;;;64.20;28.33;;;;;;;-1.10;100.00;93455.13;5055720;28;20049;-69
2023/02/21 05:11:17;;;;;;;61.67;29.63;;;;;;;-1.04;100.00;93453.81;5069499;28;20037;-69
2023/02/21 05:13:44;;;;;;;82.38;29.75;;;;;;;-0.91;100.00;93443.47;5068746;28;21069;-70
2023/02/21 05:16:11;;;;;;;98.25;41.40;;;;;;;-0.76;100.00;93436.28;5069205;28;20048;-70
2023/02/21 05:18:38;;;;;;;86.85;33.88;;;;;;;-0.65;100.00;93435.31;5068845;28;20508;-70
2023/02/21 05:21:06;;;;;;;83.13;39.17;;;;;;;-0.51;100.00;93435.84;5068834;28;20090;-70
2023/02/21 05:23:34;;;;;;;80.30;30.23;;;;;;;-0.42;100.00;93432.47;5068916;28;20109;-69
2023/02/21 05:26:02;;;;;;;73.05;33.47;;;;;;;-0.39;100.00;93437.25;5069214;28;20048;-69
2023/02/21 05:28:28;;;;;;;57.30;23.00;;;;;;;-0.39;100.00;93423.84;5068473;28;20052;-69
2023/02/21 05:30:55;;;;;;;65.38;31.50;;;;;;;-0.22;100.00;93427.38;5069038;28;20086;-69
2023/02/21 05:33:22;;;;;;;65.47;32.67;;;;;;;-0.12;100.00;93422.28;5068655;28;20110;-70
2023/02/21 05:35:49;;;;;;;71.63;35.35;;;;;;;-0.12;100.00;93407.94;5069064;28;20045;-69
2023/02/21 05:38:16;;;;;;;126.03;51.92;;;;;;;0.12;100.00;93421.81;5068752;28;20074;-69
2023/02/21 05:40:45;;;;;;;118.13;43.38;;;;;;;0.09;100.00;93420.34;5069085;28;20048;-69
2023/02/21 05:43:12;;;;;;;99.95;39.40;;;;;;;0.03;100.00;93425.97;5068803;28;20571;-69
2023/02/21 05:45:38;;;;;;;66.10;30.73;;;;;;;0.00;100.00;93431.31;5068982;28;20095;-69
2023/02/21 05:48:06;;;;;;;50.05;23.10;;;;;;;-0.04;100.00;93430.75;5068843;28;20040;-69
2023/02/21 05:50:33;;;;;;;40.63;19.80;;;;;;;-0.12;100.00;93428.16;5068535;28;20045;-69
2023/02/21 05:53:00;;;;;;;31.65;19.90;;;;;;;-0.07;100.00;93432.78;5069007;28;20087;-70
2023/02/21 05:55:27;;;;;;;40.60;23.73;;;;;;;0.02;100.00;93434.47;5068823;28;20098;-69
2023/02/21 05:57:55;;;;;;;41.38;23.20;;;;;;;0.23;100.00;93446.88;5068572;28;20036;-69
2023/02/21 06:00:25;;;;;;;56.75;27.13;;;;;;;0.42;100.00;93455.31;5068690;28;20056;-69
2023/02/21 06:02:52;;;;;;;71.47;32.90;;;;;;;0.56;100.00;93453.22;5068305;28;20488;-69
2023/02/21 06:05:19;;;;;;;121.18;46.85;;;;;;;0.62;100.00;93448.41;5068753;28;20041;-69
2023/02/21 06:07:45;;;;;;;39.30;19.52;;;;;;;0.68;100.00;93448.78;5068353;28;20098;-69
2023/02/21 06:10:13;;;;;;;60.72;28.20;;;;;;;0.86;100.00;93457.16;5068583;28;20049;-69
2023/02/21 06:12:39;;;;;;;69.57;34.25;;;;;;;0.88;100.00;93446.91;5068735;28;20070;-70
2023/02/21 06:15:09;;;;;;;50.92;25.98;;;;;;;0.56;100.00;93453.22;5068870;28;20053;-69
2023/02/21 06:17:36;;;;;;;68.55;32.38;;;;;;;0.60;100.00;93454.53;5072164;28;20509;-69
2023/02/21 06:20:04;;;;;;;136.30;61.22;;;;;;;0.29;100.00;93462.41;5072081;28;20431;-69
2023/02/21 06:22:31;;;;;;;58.25;31.75;;;;;;;0.15;100.00;93454.38;5072203;28;20385;-69
2023/02/21 06:24:58;;;;;;;47.42;24.70;;;;;;;0.08;100.00;93449.06;5072303;28;20389;-69
2023/02/21 06:27:24;;;;;;;39.72;24.48;;;;;;;0.16;100.00;93458.47;5072186;28;20044;-69
2023/02/21 06:29:51;;;;;;;42.08;25.80;;;;;;;0.23;100.00;93456.97;5060842;28;20045;-69
2023/02/21 06:32:19;;;;;;;37.63;23.73;;;;;;;0.20;100.00;93449.69;5059778;28;20053;-69
2023/02/21 06:34:46;;;;;;;42.60;26.48;;;;;;;0.40;100.00;93464.75;5071642;28;20098;-69
2023/02/21 06:37:12;;;;;;;101.22;51.15;;;;;;;0.39;100.00;93471.56;5071718;28;20044;-69
2023/02/21 06:39:39;;;;;;;51.42;32.05;;;;;;;0.50;100.00;93464.69;5072294;28;20452;-69
2023/02/21 06:42:06;;;;;;;46.97;27.58;;;;;;;0.73;100.00;93464.28;5071756;28;20090;-69
2023/02/21 06:44:33;;;;;;;76.28;36.90;;;;;;;0.91;100.00;93465.13;5071686;28;20561;-69
2023/02/21 06:47:00;;;;;;;51.55;29.00;;;;;;;1.02;100.00;93474.22;5071644;28;20101;-69
2023/02/21 06:49:28;;;;;;;59.65;32.95;;;;;;;1.01;100.00;93470.09;5071811;28;20554;-69
2023/02/21 06:51:54;;;;;;;99.03;43.90;;;;;;;1.03;100.00;93470.75;5071190;28;20056;-69
2023/02/21 06:54:21;;;;;;;56.90;32.42;;;;;;;1.14;100.00;93464.69;5069868;28;20401;-69
2023/02/21 06:56:48;;;;;;;61.92;32.95;;;;;;;1.26;100.00;93472.06;5067845;28;20098;-70
2023/02/21 06:59:14;;;;;;;59.90;31.33;;;;;;;1.37;100.00;93460.91;5071413;28;20508;-69
2023/02/21 07:01:41;;;;;;;140.35;79.03;;;;;;;1.61;100.00;93452.69;5071066;28;20413;-69
2023/02/21 07:04:08;;;;;;;94.78;43.40;;;;;;;1.67;100.00;93462.22;5071730;28;20110;-69
2023/02/21 07:06:36;;;;;;;74.47;34.20;;;;;;;1.80;100.00;93456.75;5071289;28;20079;-69
2023/02/21 07:09:03;;;;;;;63.90;32.80;;;;;;;1.67;100.00;93447.00;5069373;28;20048;-69
2023/02/21 07:11:31;;;;;;;69.40;34.58;;;;;;;1.85;100.00;93469.00;5050735;28;20041;-69
2023/02/21 07:13:58;;;;;;;80.13;49.78;;;;;;;2.13;100.00;93464.53;5051019;28;20098;-69
2023/02/21 07:16:25;;;;;;;79.97;41.05;;;;;;;1.99;100.00;93447.38;5055914;28;20048;-69
2023/02/21 07:18:52;;;;;;;69.90;35.17;;;;;;;2.08;100.00;93455.81;5071165;28;20048;-69
2023/02/21 07:21:20;;;;;;;87.45;46.33;;;;;;;2.16;100.00;93460.91;5062939;28;20493;-69
2023/02/21 07:23:49;;;;;;;91.80;46.70;;;;;;;2.35;100.00;93456.53;5053030;28;20044;-69
2023/02/21 07:26:15;;;;;;;110.72;56.13;;;;;;;2.42;100.00;93470.19;5068510;28;20048;-69
2023/02/21 07:28:42;;;;;;;72.47;35.80;;;;;;;2.53;100.00;93462.31;5067173;28;20075;-69
2023/02/21 07:31:09;;;;;;;110.72;54.03;;;;;;;2.52;100.00;93462.47;5070572;28;20492;-70
2023/02/21 07:33:36;;;;;;;65.60;26.10;;;;;;;2.68;100.00;93464.25;5071234;28;20071;-70
2023/02/21 07:36:03;;;;;;;72.63;26.35;;;;;;;2.87;100.00;93462.41;5071097;28;20117;-69
2023/02/21 07:38:31;;;;;;;74.82;26.85;;;;;;;2.85;100.00;93432.09;5070957;28;20044;-69
2023/02/21 07:41:01;;;;;;;96.32;48.10;;;;;;;3.06;100.00;93424.03;5070913;28;20105;-69
2023/02/21 07:43:30;;;;;;;88.22;40.85;;;;;;;3.39;100.00;93435.94;5070455;28;20455;-69
2023/02/21 07:45:57;;;;;;;71.80;33.28;;;;;;;3.41;100.00;93445.91;5070484;28;20040;-69
2023/02/21 07:48:24;;;;;;;75.18;38.85;;;;;;;3.40;100.00;93444.34;5070350;28;20468;-69
2023/02/21 07:50:51;;;;;;;72.15;30.73;;;;;;;3.32;100.00;93443.41;5070536;28;20048;-69
2023/02/21 07:53:17;;;;;;;66.78;31.27;;;;;;;3.31;100.00;93430.84;5070588;28;20048;-69
2023/02/21 07:55:44;;;;;;;63.72;33.28;;;;;;;3.56;100.00;93436.72;5069195;28;20044;-69
2023/02/21 07:58:12;;;;;;;67.45;30.50;;;;;;;3.70;100.00;93427.63;5068264;28;20048;-69
2023/02/21 08:00:39;;;;;;;66.53;31.23;;;;;;;3.94;100.00;93427.75;5070630;28;20056;-69
2023/02/21 08:03:06;;;;;;;63.58;30.38;;;;;;;4.13;100.00;93429.13;5070059;28;20040;-69
2023/02/21 08:05:32;;;;;;;84.05;37.47;;;;;;;4.48;100.00;93433.91;5070611;28;20055;-70
2023/02/21 08:07:59;;;;;;;64.88;29.45;;;;;;;4.77;100.00;93427.41;5064418;28;20103;-69
2023/02/21 08:10:28;;;;;;;65.63;30.70;;;;;;;5.14;100.00;93425.88;5050337;28;20103;-69
2023/02/21 08:12:54;;;;;;;66.20;33.65;;;;;;;5.55;100.00;93423.97;5057532;28;20135;-69
2023/02/21 08:15:23;;;;;;;71.70;37.95;;;;;;;6.03;100.00;93425.44;5068909;28;20512;-70
2023/02/21 08:17:51;;;;;;;58.88;26.35;;;;;;;6.60;100.00;93416.31;5065585;28;20045;-70
2023/02/21 08:20:18;;;;;;;37.38;16.15;;;;;;;7.12;100.00;93412.91;5069553;28;20048;-70
2023/02/21 08:22:45;;;;;;;11.43;5.43;;;;;;;7.81;95.75;93411.47;5069193;28;20053;-70
2023/02/21 08:25:13;;;;;;;5.72;3.35;;;;;;;8.43;89.55;93409.00;5069981;28;20052;-70
2023/02/21 08:27:40;;;;;;;5.63;2.25;;;;;;;8.86;81.76;93406.41;5069518;28;20045;-70
2023/02/21 08:30:08;;;;;;;4.97;2.20;;;;;;;9.14;80.68;93406.28;5069511;28;20051;-70
2023/02/21 08:32:38;;;;;;;4.53;2.33;;;;;;;9.43;78.31;93411.22;5067159;28;20085;-70
2023/02/21 08:35:10;;;;;;;3.65;1.92;;;;;;;9.85;76.11;93398.16;5069570;28;20078;-70
2023/02/21 08:37:44;;;;;;;5.32;2.38;;;;;;;10.19;73.57;93398.09;5069614;28;20053;-70
2023/02/21 08:40:11;;;;;;;4.95;2.60;;;;;;;10.54;70.35;93400.34;5069141;28;20101;-70
2023/02/21 08:42:38;;;;;;;5.22;2.40;;;;;;;10.83;67.69;93401.59;5069419;28;20055;-70
2023/02/21 08:45:05;;;;;;;3.50;2.00;;;;;;;11.02;66.07;93400.91;5069114;28;20044;-70
2023/02/21 08:47:36;;;;;;;3.17;1.80;;;;;;;11.29;63.76;93391.22;5068638;28;20133;-70
2023/02/21 08:50:03;;;;;;;3.38;2.28;;;;;;;11.45;63.60;93399.44;5069110;28;20049;-71
2023/02/21 08:52:29;;;;;;;5.47;2.40;;;;;;;11.61;62.52;93398.09;5069015;28;20048;-70
2023/02/21 08:54:56;;;;;;;4.25;2.33;;;;;;;11.71;60.55;93397.66;5068945;28;20048;-70
2023/02/21 08:57:23;;;;;;;3.58;1.90;;;;;;;11.77;61.28;93378.78;5063557;28;20090;-71
2023/02/21 08:59:49;;;;;;;8.85;3.33;;;;;;;12.06;60.08;93381.69;5068885;28;20056;-70
2023/02/21 09:02:17;;;;;;;4.28;2.58;;;;;;;12.24;57.75;93375.75;5069282;28;20405;-70
2023/02/21 09:04:46;;;;;;;5.45;1.83;;;;;;;12.50;57.60;93388.53;5068521;28;20040;-70
2023/02/21 09:07:13;;;;;;;8.23;6.18;;;;;;;12.65;57.88;93378.63;5069281;28;20048;-70
2023/02/21 09:09:40;;;;;;;10.65;7.60;;;;;;;12.78;57.74;93376.88;5068944;28;20563;-70
2023/02/21 09:12:08;;;;;;;5.20;2.95;;;;;;;12.78;56.65;93379.47;5069128;28;20048;-70
2023/02/21 09:14:35;;;;;;;4.88;2.72;;;;;;;12.87;55.59;93378.13;5068829;28;20049;-70
2023/02/21 09:17:02;;;;;;;8.65;2.55;;;;;;;13.02;55.82;93376.97;5068948;28;20053;-70
2023/02/21 09:19:28;;;;;;;2.55;1.48;;;;;;;13.05;51.76;93373.94;5068901;28;20048;-70
2023/02/21 09:21:56;;;;;;;7.25;2.97;;;;;;;13.27;55.47;93373.41;5067609;28;20045;-70
2023/02/21 09:24:25;;;;;;;6.20;2.90;;;;;;;13.20;54.49;93335.59;5068624;28;20520;-70
2023/02/21 09:26:54;;;;;;;4.47;1.80;;;;;;;13.58;53.59;93369.00;5068629;28;20088;-70
2023/02/21 09:29:21;;;;;;;5.28;1.50;;;;;;;13.52;53.56;93364.72;5068536;28;20567;-70
2023/02/21 09:31:48;;;;;;;5.20;2.53;;;;;;;13.66;53.54;93363.47;5068797;28;20045;-70
2023/02/21 09:34:15;;;;;;;8.43;3.17;;;;;;;13.81;52.50;93363.06;5068599;28;20820;-70
2023/02/21 09:36:42;;;;;;;5.10;1.80;;;;;;;13.81;51.25;93363.06;5068459;28;20045;-71
2023/02/21 09:39:11;;;;;;;3.70;1.70;;;;;;;13.95;51.88;93357.66;5068862;28;20053;-70
2023/02/21 09:41:38;;;;;;;7.75;2.65;;;;;;;14.10;52.29;93362.34;5068635;28;20094;-70
2023/02/21 09:44:07;;;;;;;44.40;15.50;;;;;;;14.24;51.38;93360.28;5068902;28;20044;-70
2023/02/21 09:46:36;;;;;;;4.60;2.58;;;;;;;14.33;49.34;93355.53;5068753;28;20052;-70
2023/02/21 09:49:07;;;;;;;4.68;1.80;;;;;;;14.30;49.52;93352.41;5068774;28;20041;-70
2023/02/21 09:51:40;;;;;;;3.97;2.05;;;;;;;14.35;49.27;93341.38;5070585;28;20505;-70
2023/02/21 09:54:18;;;;;;;4.22;1.65;;;;;;;14.36;50.51;93339.59;5073109;28;20049;-71
2023/02/21 09:56:46;;;;;;;5.00;2.55;;;;;;;14.37;49.32;93343.75;5072783;28;20059;-71
2023/02/21 09:59:14;;;;;;;3.53;1.67;;;;;;;14.47;48.65;93336.19;5072931;28;20102;-70
2023/02/21 10:01:54;;;;;;;3.75;1.42;;;;;;;14.39;48.95;93303.72;5071598;28;20110;-70
2023/02/21 10:04:31;;;;;;;104.75;29.98;;;;;;;14.68;48.83;93331.38;5073042;28;20106;-71
2023/02/21 10:07:02;;;;;;;15.38;4.63;;;;;;;14.86;48.88;93327.81;5072365;28;20083;-71
2023/02/21 10:09:40;;;;;;;25.95;9.30;;;;;;;14.89;47.66;93303.31;5072969;28;20117;-71
2023/02/21 10:12:16;;;;;;;93.40;30.42;;;;;;;15.16;45.91;93308.66;5072480;28;20048;-70
2023/02/21 10:15:00;;;;;;;18.98;6.25;;;;;;;15.19;47.27;93303.00;5067311;28;20045;-70
2023/02/21 10:17:32;;;;;;;4.10;1.70;;;;;;;15.19;46.75;93308.16;5070684;28;20048;-70
2023/02/21 10:20:04;;;;;;;5.95;2.25;;;;;;;15.20;45.45;93314.16;5059779;28;20045;-70
2023/02/21 10:22:34;;;;;;;40.28;27.20;;;;;;;15.34;47.06;93304.25;5065315;28;20049;-70
2023/02/21 10:25:19;;;;;;;18.83;7.40;;;;;;;15.55;45.16;93291.63;5037322;28;20050;-70
2023/02/21 10:27:46;;;;;;;68.75;22.90;;;;;;;15.59;45.65;93279.75;5054351;28;20040;-70
2023/02/21 10:30:21;;;;;;;86.32;29.33;;;;;;;15.76;45.16;93284.88;5065252;28;20049;-70
2023/02/21 10:32:47;;;;;;;67.00;22.63;;;;;;;15.91;44.88;93279.09;5072290;28;20041;-70
2023/02/21 10:35:14;;;;;;;31.73;11.23;;;;;;;16.01;45.53;93274.09;5072069;28;20052;-70
2023/02/21 10:37:46;;;;;;;20.55;7.35;;;;;;;16.08;44.51;93275.69;5071652;28;20093;-70
2023/02/21 10:40:28;;;;;;;9.30;3.80;;;;;;;16.07;43.43;93268.97;5061281;28;20178;-70
2023/02/21 10:43:02;;;;;;;19.33;6.97;;;;;;;16.25;43.12;93273.81;5071676;28;20048;-70
2023/02/21 10:45:45;;;;;;;6.47;1.98;;;;;;;16.40;43.81;93267.22;5071803;28;20473;-71
2023/02/21 10:48:13;;;;;;;30.40;8.55;;;;;;;16.53;42.27;93256.47;5072055;28;20044;-70
2023/02/21 10:50:44;;;;;;;328.38;107.95;;;;;;;16.59;41.60;93249.53;5071866;28;21093;-70
2023/02/21 10:53:25;;;;;;;118.70;38.13;;;;;;;16.67;41.30;93248.28;5066848;28;20037;-71
2023/02/21 10:56:09;;;;;;;260.95;85.93;;;;;;;16.72;40.43;93243.16;5065230;28;20567;-70
2023/02/21 10:58:36;;;;;;;100.53;30.90;;;;;;;16.86;40.50;93234.94;5070251;28;20048;-71
2023/02/21 11:01:14;;;;;;;69.57;24.42;;;;;;;16.98;39.60;93237.38;5070941;28;20424;-71
2023/02/21 11:03:47;;;;;;;83.18;28.20;;;;;;;17.11;41.45;93226.59;5071473;28;20052;-71
2023/02/21 11:06:24;;;;;;;71.22;23.65;;;;;;;17.27;41.03;93224.09;5071553;28;20036;-71
2023/02/21 11:08:51;;;;;;;21.60;7.68;;;;;;;17.22;40.28;93202.25;5071368;28;20044;-71
2023/02/21 11:11:31;;;;;;;104.68;36.45;;;;;;;17.29;39.72;93228.00;5071289;28;20052;-72
2023/02/21 11:14:08;;;;;;;93.55;34.17;;;;;;;17.26;40.27;93205.13;5070981;28;20045;-71
2023/02/21 11:16:35;;;;;;;8.55;3.83;;;;;;;17.28;39.40;93212.69;5061297;28;20098;-71
2023/02/21 11:19:06;;;;;;;61.75;22.02;;;;;;;17.22;39.06;93210.06;5065207;28;20056;-71
2023/02/21 11:21:33;;;;;;;123.03;44.92;;;;;;;17.21;39.37;93203.31;5064896;28;20103;-71
2023/02/21 11:24:02;;;;;;;25.20;10.38;;;;;;;17.10;39.88;93191.28;5065893;28;20082;-71
2023/02/21 11:26:35;;;;;;;25.20;10.77;;;;;;;17.28;40.11;93189.31;5071491;28;20128;-71
2023/02/21 11:29:10;;;;;;;29.13;12.02;;;;;;;17.36;41.23;93196.66;5070815;28;20098;-71
2023/02/21 11:31:37;;;;;;;22.25;7.85;;;;;;;17.38;39.44;93194.56;5071080;28;20451;-71
2023/02/21 11:34:06;;;;;;;111.55;46.70;;;;;;;17.45;39.89;93189.16;5070758;28;20104;-71
2023/02/21 11:36:35;;;;;;;15.93;6.55;;;;;;;17.36;40.08;93155.09;5070821;28;20044;-71
2023/02/21 11:39:16;;;;;;;9.23;3.58;;;;;;;17.41;39.79;93180.28;5070804;28;20057;-71
2023/02/21 11:41:48;;;;;;;44.55;17.70;;;;;;;17.43;39.19;93171.22;5070846;28;20052;-71
2023/02/21 11:44:30;;;;;;;9.82;3.72;;;;;;;17.40;39.84;93174.31;5070964;28;20048;-71
2023/02/21 11:47:07;;;;;;;26.92;11.00;;;;;;;17.50;40.19;93165.81;5070965;28;20076;-71
2023/02/21 11:49:43;;;;;;;8.30;3.25;;;;;;;17.44;39.96;93161.59;5070735;28;20094;-71
2023/02/21 11:52:11;;;;;;;;;;;;;;;17.42;40.15;93146.28;5071406;28;20048;-71
2023/02/21 11:54:40;;;;;;;50.13;19.27;;;;;;;17.43;39.42;93144.47;5058075;28;19993;-71
2023/02/21 11:57:16;;;;;;;13.13;4.93;;;;;;;17.35;40.39;93146.53;5058811;28;20059;-71
2023/02/21 11:59:49;;;;;;;27.30;10.50;;;;;;;17.34;39.95;93136.38;5070218;28;20438;-71
2023/02/21 12:02:36;;;;;;;71.00;28.30;;;;;;;17.47;40.77;93137.75;5070683;28;20098;-71
2023/02/21 12:05:16;;;;;;;28.23;11.75;;;;;;;17.41;39.36;93134.31;5069891;28;20508;-71
2023/02/21 12:07:50;;;;;;;49.67;20.15;;;;;;;17.43;39.69;93132.28;5069941;28;20074;-71
2023/02/21 12:10:33;;;;;;;10.15;4.28;;;;;;;17.30;39.00;93127.53;5070312;28;20045;-71
2023/02/21 12:13:10;;;;;;;6.30;2.53;;;;;;;17.27;39.87;93126.22;5044938;28;20102;-72
2023/02/21 12:15:48;;;;;;;7.07;2.92;;;;;;;17.21;39.48;93119.44;5069995;28;20040;-71
2023/02/21 12:18:39;;;;;;;5.20;1.67;;;;;;;17.22;39.27;93111.41;5051502;28;20512;-72
2023/02/21 12:21:33;;;;;;;13.43;5.32;;;;;;;17.19;38.98;93105.94;5070135;28;20114;-72
2023/02/21 12:24:08;;;;;;;5.38;1.95;;;;;;;17.06;38.50;93104.59;5069829;28;20053;-72
2023/02/21 12:26:50;;;;;;;4.53;1.55;;;;;;;16.99;38.96;93093.63;5070184;28;20098;-71
2023/02/21 12:29:38;;;;;;;5.03;1.50;;;;;;;17.02;39.44;93093.13;5069713;28;20089;-71
2023/02/21 12:32:29;;;;;;;4.35;1.08;;;;;;;16.61;39.93;93052.22;5069916;28;20094;-72
2023/02/21 12:35:14;;;;;;;8.55;4.30;;;;;;;16.89;40.89;93082.16;5070191;28;20045;-72
2023/02/21 12:37:50;;;;;;;5.55;1.58;;;;;;;16.89;39.23;93089.19;5069715;28;20568;-71
2023/02/21 12:40:34;;;;;;;11.07;5.10;;;;;;;16.77;39.60;93066.81;5069227;28;20044;-72
2023/02/21 12:43:20;;;;;;;13.95;5.55;;;;;;;16.99;39.74;93071.06;5069314;28;20102;-72
2023/02/21 12:46:01;;;;;;;8.48;4.38;;;;;;;17.12;39.33;93076.88;5067134;28;20121;-72
2023/02/21 12:48:35;;;;;;;4.88;2.17;;;;;;;17.17;37.45;93074.28;5057742;28;20880;-72
2023/02/21 12:51:06;;;;;;;16.00;6.80;;;;;;;17.29;38.94;93076.66;5068394;28;20048;-72
2023/02/21 12:53:38;;;;;;;5.43;1.90;;;;;;;17.26;38.36;93064.97;5069356;28;20052;-72
2023/02/21 12:56:11;;;;;;;15.77;5.55;;;;;;;17.41;39.50;93061.63;5068993;28;20098;-72
2023/02/21 12:58:44;;;;;;;14.65;5.45;;;;;;;17.54;38.96;93062.97;5069735;28;20094;-72
2023/02/21 13:01:17;;;;;;;20.17;9.05;;;;;;;17.63;38.91;93061.44;5069576;28;20098;-72
2023/02/21 13:03:55;;;;;;;4.35;1.65;;;;;;;17.75;37.93;93057.81;5068514;28;20052;-72
2023/02/21 13:06:28;;;;;;;4.65;1.35;;;;;;;17.67;36.51;93059.09;5069075;28;20044;-72
2023/02/21 13:09:07;;;;;;;3.95;1.15;;;;;;;17.32;35.28;93047.59;5069274;28;20036;-72
2023/02/21 13:11:39;;;;;;;3.13;1.23;;;;;;;17.35;37.90;93026.31;5069550;28;20048;-72
2023/02/21 13:14:10;;;;;;;5.03;1.77;;;;;;;17.58;38.68;93038.03;5068873;28;20555;-72
2023/02/21 13:16:39;;;;;;;10.55;5.05;;;;;;;17.74;38.73;93043.28;5062144;28;20104;-72
2023/02/21 13:19:10;;;;;;;3.95;1.83;;;;;;;17.82;36.17;93036.78;5069533;28;20044;-72
2023/02/21 13:21:56;;;;;;;2.83;1.55;;;;;;;17.78;38.33;93031.34;5068659;28;20082;-72
2023/02/21 13:24:39;;;;;;;8.75;4.45;;;;;;;17.76;38.72;93030.78;5068483;28;20127;-71
2023/02/21 13:27:37;;;;;;;35.10;16.17;;;;;;;17.89;38.28;93024.31;5068915;28;20078;-70
2023/02/21 13:30:13;;;;;;;7.10;3.88;;;;;;;17.94;37.46;93024.31;5068787;28;20048;-70
2023/02/21 13:32:52;;;;;;;7.50;3.63;;;;;;;17.96;36.58;93018.88;5069447;28;21036;-70
2023/02/21 13:35:24;;;;;;;7.97;3.17;;;;;;;17.96;36.32;93017.03;5069138;28;20090;-70
2023/02/21 13:37:52;;;;;;;3.90;1.27;;;;;;;17.84;36.30;93021.72;5068653;28;20059;-69
2023/02/21 13:40:23;;;;;;;6.30;2.50;;;;;;;17.79;36.24;93026.91;5069022;28;20037;-70
2023/02/21 13:43:01;;;;;;;4.63;1.95;;;;;;;17.69;35.99;93018.03;5068724;28;20570;-70
2023/02/21 13:45:31;;;;;;;4.53;1.35;;;;;;;17.65;36.60;93018.84;5044423;28;20127;-69
2023/02/21 13:48:29;;;;;;;7.70;3.22;;;;;;;17.68;37.38;93020.94;5069165;28;20040;-69
2023/02/21 13:50:58;;;;;;;6.68;2.70;;;;;;;17.67;35.27;93007.16;5033966;28;20048;-69
2023/02/21 13:53:32;;;;;;;6.88;3.25;;;;;;;17.62;36.80;93002.75;5068559;28;20094;-69
2023/02/21 13:56:17;;;;;;;13.88;6.75;;;;;;;17.61;36.58;93010.78;5068772;28;20124;-70